Time;durP1;ratioP1;P1;durP2;ratioP2;P2;SDS_P1;SDS_P2;PMS_P1;PMS_P2;Temp;Humidity;BMP_temperature;BMP_pressure;BME280_temperature;BME280_humidity;BME280_pressure;Samples;Min_cycle;Max_cycle;Signal;HPM_P1;HPM_P2
2021/07/17 00:01:47;;;;;;;13.58;10.58;;;;;;;26.37;60.97;100263.17;1692077;83;21070;-64
2021/07/17 00:04:14;;;;;;;11.38;9.58;;;;;;;26.36;61.19;100263.40;1698440;83;21575;-64
2021/07/17 00:06:40;;;;;;;12.37;9.88;;;;;;;26.33;61.22;100268.74;1662882;83;21071;-64
2021/07/17 00:09:07;;;;;;;13.40;9.65;;;;;;;26.31;61.57;100270.86;1676067;83;21973;-64
2021/07/17 00:11:33;;;;;;;11.00;9.05;;;;;;;26.31;61.87;100269.51;1662145;83;21105;-64
2021/07/17 00:14:00;;;;;;;12.73;10.25;;;;;;;26.33;61.80;100264.16;1687385;84;21086;-64
2021/07/17 00:16:26;;;;;;;13.32;10.08;;;;;;;26.35;61.46;100262.59;1676800;84;21659;-64
2021/07/17 00:18:55;;;;;;;12.63;10.00;;;;;;;26.36;61.26;100262.89;1687144;83;21096;-64
2021/07/17 00:21:22;;;;;;;14.23;10.32;;;;;;;26.34;61.32;100266.33;1672813;84;21097;-64
2021/07/17 00:23:49;;;;;;;11.95;9.78;;;;;;;26.32;61.67;100260.34;1694196;83;21090;-64
2021/07/17 00:26:16;;;;;;;15.13;10.10;;;;;;;26.29;62.05;100259.45;1692387;83;21058;-64
2021/07/17 00:28:43;;;;;;;11.95;9.35;;;;;;;26.26;62.57;100251.81;1661448;84;21650;-65
2021/07/17 00:31:09;;;;;;;13.22;10.05;;;;;;;26.22;62.76;100250.11;1690310;82;21485;-64
2021/07/17 00:33:36;;;;;;;11.08;9.20;;;;;;;26.18;62.79;100254.86;1714605;81;21525;-64
2021/07/17 00:36:03;;;;;;;14.20;9.63;;;;;;;26.11;62.85;100251.72;1688843;83;21569;-64
2021/07/17 00:38:30;;;;;;;14.20;10.60;;;;;;;26.12;62.70;100256.05;1689817;82;21128;-64
2021/07/17 00:40:57;;;;;;;12.35;10.28;;;;;;;26.13;62.74;100260.40;1712262;82;21572;-64
2021/07/17 00:43:23;;;;;;;12.00;9.83;;;;;;;26.10;62.71;100255.45;1670830;83;21480;-64
2021/07/17 00:45:50;;;;;;;14.87;10.95;;;;;;;26.08;62.56;100251.36;1714670;82;21131;-64
2021/07/17 00:48:16;;;;;;;13.18;10.75;;;;;;;26.05;62.70;100255.32;1710739;82;21073;-64
2021/07/17 00:50:43;;;;;;;14.80;11.35;;;;;;;26.01;62.67;100256.84;1710129;83;21557;-64
2021/07/17 00:53:09;;;;;;;14.33;11.08;;;;;;;25.97;62.75;100260.22;1704107;82;21088;-64
2021/07/17 00:55:38;;;;;;;16.25;11.48;;;;;;;25.90;63.26;100258.92;1664587;84;21533;-64
2021/07/17 00:58:05;;;;;;;16.93;10.72;;;;;;;25.89;63.50;100262.66;1685549;83;21609;-64
2021/07/17 01:00:32;;;;;;;15.95;11.25;;;;;;;25.91;63.08;100260.05;1681349;84;21168;-64
2021/07/17 01:03:01;;;;;;;12.85;11.20;;;;;;;25.91;62.60;100260.58;1681963;83;21122;-64
2021/07/17 01:05:27;;;;;;;14.28;10.13;;;;;;;25.87;62.17;100258.02;1694018;82;21575;-63
2021/07/17 01:07:54;;;;;;;13.00;10.93;;;;;;;25.81;62.21;100259.77;1671697;83;22090;-63
2021/07/17 01:10:21;;;;;;;13.10;10.90;;;;;;;25.75;62.26;100257.96;1690615;83;21112;-63
2021/07/17 01:12:51;;;;;;;12.60;10.32;;;;;;;25.70;62.33;100260.52;1675173;84;21110;-63
2021/07/17 01:15:19;;;;;;;13.35;10.30;;;;;;;25.65;62.45;100266.57;1692148;83;21066;-63
2021/07/17 01:17:46;;;;;;;12.82;11.22;;;;;;;25.60;62.69;100258.34;1691436;83;21166;-63
2021/07/17 01:20:17;;;;;;;13.58;10.40;;;;;;;25.58;62.73;100260.45;1708493;82;22101;-63
2021/07/17 01:22:43;;;;;;;11.60;9.80;;;;;;;25.63;62.75;100256.55;1716480;82;21086;-63
2021/07/17 01:25:23;;;;;;;12.43;10.23;;;;;;;25.67;62.74;100259.61;1703092;82;21117;-64
2021/07/17 01:27:52;;;;;;;11.78;10.10;;;;;;;25.68;62.98;100257.23;1662757;84;21065;-64
2021/07/17 01:30:22;;;;;;;12.65;10.05;;;;;;;25.67;63.34;100259.11;1686616;83;21283;-64
2021/07/17 01:32:48;;;;;;;16.40;10.98;;;;;;;25.62;63.10;100259.47;1685506;83;21545;-64
2021/07/17 01:35:15;;;;;;;14.98;10.10;;;;;;;25.55;62.88;100259.55;1689068;83;21078;-64
2021/07/17 01:37:41;;;;;;;16.60;10.38;;;;;;;25.49;62.95;100257.23;1693707;83;21688;-64
2021/07/17 01:40:11;;;;;;;13.48;10.93;;;;;;;25.44;63.05;100260.31;1689603;83;21129;-64
2021/07/17 01:42:38;;;;;;;15.08;11.10;;;;;;;25.38;63.24;100256.63;1692385;83;21077;-63
2021/07/17 01:45:07;;;;;;;14.13;10.70;;;;;;;25.33;63.46;100260.52;1691804;83;22109;-63
2021/07/17 01:47:36;;;;;;;12.43;10.23;;;;;;;25.37;63.51;100257.69;1701126;82;21120;-64
2021/07/17 01:50:05;;;;;;;14.35;10.10;;;;;;;25.40;63.59;100259.41;1665653;84;21078;-63
2021/07/17 01:52:31;;;;;;;12.73;10.65;;;;;;;25.43;63.60;100257.31;1693398;83;21000;-63
2021/07/17 01:54:58;;;;;;;16.37;11.75;;;;;;;25.42;63.55;100252.95;1694023;83;21060;-64
2021/07/17 01:57:24;;;;;;;13.58;11.03;;;;;;;25.38;63.44;100250.70;1692917;83;21959;-64
2021/07/17 01:59:51;;;;;;;12.45;10.25;;;;;;;25.34;63.46;100254.91;1690586;83;21141;-63
2021/07/17 02:02:17;;;;;;;20.75;11.80;;;;;;;25.31;63.55;100252.66;1679455;84;21509;-64
2021/07/17 02:04:44;;;;;;;15.13;10.53;;;;;;;25.31;63.76;100255.88;1693149;83;21066;-63
2021/07/17 02:07:10;;;;;;;13.05;9.78;;;;;;;25.31;63.83;100254.00;1683202;84;21653;-64
2021/07/17 02:09:38;;;;;;;14.78;11.78;;;;;;;25.36;63.78;100254.16;1695688;82;21069;-64
2021/07/17 02:12:05;;;;;;;13.85;10.40;;;;;;;25.39;63.79;100257.75;1686689;83;21506;-63
2021/07/17 02:14:39;;;;;;;16.27;11.18;;;;;;;25.43;63.65;100258.66;1692854;83;21045;-64
2021/07/17 02:17:05;;;;;;;12.37;10.35;;;;;;;25.40;63.29;100255.88;1685677;83;21126;-64
2021/07/17 02:19:33;;;;;;;26.45;10.93;;;;;;;25.35;63.30;100261.95;1698074;82;21096;-64
2021/07/17 02:21:59;;;;;;;11.60;9.75;;;;;;;25.32;63.20;100261.05;1693410;82;21936;-64
2021/07/17 02:24:26;;;;;;;14.50;11.33;;;;;;;25.29;63.01;100264.18;1693464;84;21073;-64
2021/07/17 02:26:52;;;;;;;15.10;10.98;;;;;;;25.25;63.11;100260.77;1665060;84;21133;-64
2021/07/17 02:29:18;;;;;;;12.25;10.15;;;;;;;25.22;63.22;100264.75;1696501;83;21560;-64
2021/07/17 02:31:46;;;;;;;14.43;10.70;;;;;;;25.22;63.31;100259.36;1690235;83;21126;-64
2021/07/17 02:34:12;;;;;;;14.23;10.23;;;;;;;25.28;63.29;100257.67;1691918;83;21101;-64
2021/07/17 02:36:39;;;;;;;12.68;10.70;;;;;;;25.31;63.16;100254.00;1666732;84;21090;-65
2021/07/17 02:39:07;;;;;;;12.43;10.65;;;;;;;25.32;63.42;100258.89;1662343;84;21058;-64
2021/07/17 02:41:34;;;;;;;13.48;10.43;;;;;;;25.29;63.36;100265.52;1693757;83;21078;-64
2021/07/17 02:44:00;;;;;;;14.70;11.28;;;;;;;25.26;63.43;100260.58;1668024;84;21079;-64
2021/07/17 02:46:26;;;;;;;15.25;10.72;;;;;;;25.24;63.47;100256.45;1700946;82;21390;-64
2021/07/17 02:48:53;;;;;;;18.37;11.33;;;;;;;25.21;63.25;100252.31;1695829;83;21614;-64
2021/07/17 02:51:20;;;;;;;14.70;10.78;;;;;;;25.17;63.31;100255.17;1697121;83;21105;-64
2021/07/17 02:53:46;;;;;;;18.95;9.50;;;;;;;25.20;63.58;100256.89;1674987;84;21050;-64
2021/07/17 02:56:12;;;;;;;21.68;10.43;;;;;;;25.27;63.26;100256.02;1683429;83;21088;-64
2021/07/17 02:58:40;;;;;;;11.85;10.15;;;;;;;25.32;63.25;100257.54;1683437;83;21092;-64
2021/07/17 03:01:06;;;;;;;17.30;10.80;;;;;;;25.36;63.52;100264.11;1706108;83;21601;-64
2021/07/17 03:03:33;;;;;;;13.38;10.43;;;;;;;25.37;63.54;100257.16;1711676;82;21053;-64
2021/07/17 03:05:59;;;;;;;17.77;10.23;;;;;;;25.39;63.40;100259.09;1698699;82;21098;-64
2021/07/17 03:08:25;;;;;;;11.43;9.43;;;;;;;25.40;63.22;100252.67;1702991;83;21070;-64
2021/07/17 03:10:54;;;;;;;12.80;10.13;;;;;;;25.43;63.77;100249.23;1693284;83;21790;-64
2021/07/17 03:13:20;;;;;;;16.35;11.25;;;;;;;25.48;63.77;100254.77;1703030;82;21093;-63
2021/07/17 03:15:49;;;;;;;12.13;9.63;;;;;;;25.57;63.76;100247.51;1707660;82;21118;-64
2021/07/17 03:18:18;;;;;;;13.43;10.75;;;;;;;25.66;63.60;100250.72;1705425;82;21105;-64
2021/07/17 03:20:45;;;;;;;13.10;10.58;;;;;;;25.73;63.48;100250.64;1704748;82;21099;-61
2021/07/17 03:23:12;;;;;;;13.30;10.75;;;;;;;25.78;63.41;100248.89;1685025;84;21144;-64
2021/07/17 03:25:38;;;;;;;12.40;10.18;;;;;;;25.82;63.06;100245.22;1706486;81;21089;-65
2021/07/17 03:28:05;;;;;;;11.70;10.13;;;;;;;25.87;62.96;100239.16;1667329;84;21084;-62
2021/07/17 03:30:32;;;;;;;12.88;9.90;;;;;;;25.90;63.27;100244.09;1691723;83;21054;-63
2021/07/17 03:32:58;;;;;;;13.68;10.23;;;;;;;25.97;62.98;100245.39;1695160;83;21062;-62
2021/07/17 03:35:24;;;;;;;12.80;10.65;;;;;;;26.05;62.36;100248.58;1662203;83;21161;-60
2021/07/17 03:37:51;;;;;;;11.10;8.98;;;;;;;26.10;62.04;100250.60;1687777;83;21077;-62
2021/07/17 03:40:17;;;;;;;14.98;10.95;;;;;;;26.12;61.73;100241.22;1687712;83;21074;-62
2021/07/17 03:42:44;;;;;;;15.20;10.60;;;;;;;26.14;61.36;100247.73;1705849;83;21089;-62
2021/07/17 03:45:11;;;;;;;14.87;10.82;;;;;;;26.16;61.24;100247.50;1688355;83;21106;-63
2021/07/17 03:47:38;;;;;;;12.15;10.43;;;;;;;26.16;61.16;100246.16;1677325;83;21925;-63
2021/07/17 03:50:07;;;;;;;11.00;9.73;;;;;;;26.12;61.25;100241.75;1697823;83;21077;-61
2021/07/17 03:52:33;;;;;;;15.03;10.72;;;;;;;26.09;61.31;100240.35;1696429;82;21084;-63
2021/07/17 03:55:00;;;;;;;12.68;10.35;;;;;;;26.11;61.32;100238.23;1696675;83;21042;-61
2021/07/17 03:57:27;;;;;;;13.50;10.72;;;;;;;26.20;61.29;100236.03;1682163;83;21105;-63
2021/07/17 03:59:53;;;;;;;16.32;10.63;;;;;;;26.27;61.06;100235.94;1674366;83;21101;-59
2021/07/17 04:02:20;;;;;;;13.13;10.23;;;;;;;26.32;61.22;100235.53;1696651;83;21579;-59
2021/07/17 04:04:48;;;;;;;13.05;10.23;;;;;;;26.33;61.39;100229.09;1692454;83;21415;-64
2021/07/17 04:07:15;;;;;;;12.75;10.25;;;;;;;26.35;61.34;100236.96;1713294;82;21067;-68
2021/07/17 04:09:42;;;;;;;13.00;9.90;;;;;;;26.37;61.13;100240.24;1708674;82;21111;-69
2021/07/17 04:12:09;;;;;;;11.60;9.70;;;;;;;26.39;60.85;100246.76;1658131;83;21758;-63
2021/07/17 04:14:36;;;;;;;12.47;10.15;;;;;;;26.41;60.90;100244.64;1679745;83;21058;-67
2021/07/17 04:17:03;;;;;;;13.25;10.90;;;;;;;26.43;60.44;100243.38;1670135;83;21126;-65
2021/07/17 04:19:31;;;;;;;13.10;9.68;;;;;;;26.44;60.59;100245.00;1676694;83;21003;-68
2021/07/17 04:21:57;;;;;;;14.98;9.40;;;;;;;26.50;60.23;100250.02;1666915;84;21100;-64
2021/07/17 04:24:24;;;;;;;14.40;9.55;;;;;;;26.62;60.06;100256.78;1678595;84;21638;-64
2021/07/17 04:26:50;;;;;;;13.83;8.85;;;;;;;26.72;59.98;100261.11;1693507;82;21085;-65
2021/07/17 04:29:16;;;;;;;13.45;9.40;;;;;;;26.81;59.48;100261.59;1694704;83;21172;-67
2021/07/17 04:31:45;;;;;;;12.93;9.93;;;;;;;26.85;59.38;100255.50;1670493;83;21088;-70
2021/07/17 04:34:11;;;;;;;10.58;9.48;;;;;;;26.91;59.61;100259.66;1701114;83;21085;-65
2021/07/17 04:36:38;;;;;;;10.32;9.30;;;;;;;26.93;59.59;100259.70;1694898;83;21078;-62
2021/07/17 04:39:04;;;;;;;10.80;9.23;;;;;;;26.96;59.34;100260.59;1678929;83;21064;-63
2021/07/17 04:41:31;;;;;;;10.90;8.95;;;;;;;26.98;59.29;100256.31;1695345;83;21157;-62
2021/07/17 04:43:58;;;;;;;12.05;10.75;;;;;;;27.00;59.15;100257.73;1725458;81;21083;-64
2021/07/17 04:46:25;;;;;;;11.45;8.80;;;;;;;27.04;58.57;100253.50;1693930;83;21124;-63
2021/07/17 04:48:51;;;;;;;12.78;9.80;;;;;;;27.07;58.84;100256.27;1691085;83;21117;-62
2021/07/17 04:51:19;;;;;;;11.80;9.13;;;;;;;27.13;58.63;100251.80;1692511;83;21082;-63
2021/07/17 04:53:45;;;;;;;13.35;9.48;;;;;;;27.23;58.28;100249.31;1645085;84;21137;-63
2021/07/17 04:56:12;;;;;;;12.82;8.83;;;;;;;27.32;58.01;100252.00;1694776;83;21070;-62
2021/07/17 04:58:38;;;;;;;14.30;9.90;;;;;;;27.38;58.08;100251.03;1686798;83;21151;-63
2021/07/17 05:01:05;;;;;;;10.43;8.53;;;;;;;27.43;57.92;100254.37;1690716;83;21135;-62
2021/07/17 05:03:32;;;;;;;12.82;10.05;;;;;;;27.40;57.80;100254.34;1704148;83;21160;-61
2021/07/17 05:05:59;;;;;;;13.48;8.93;;;;;;;27.39;58.09;100249.17;1689304;83;21678;-61
2021/07/17 05:08:26;;;;;;;10.85;8.48;;;;;;;27.41;57.33;100250.55;1692172;83;21070;-62
2021/07/17 05:10:54;;;;;;;13.25;8.70;;;;;;;27.46;57.36;100249.04;1691822;83;21057;-61
2021/07/17 05:13:22;;;;;;;11.12;8.98;;;;;;;27.52;57.29;100251.61;1688801;83;21105;-63
2021/07/17 05:15:49;;;;;;;11.12;9.38;;;;;;;27.55;57.25;100255.16;1691293;83;21141;-60
2021/07/17 05:18:17;;;;;;;11.85;8.88;;;;;;;27.58;57.12;100260.09;1690602;83;21592;-60
2021/07/17 05:20:43;;;;;;;12.98;9.20;;;;;;;27.66;57.25;100258.91;1684360;84;21637;-60
2021/07/17 05:23:10;;;;;;;10.35;8.83;;;;;;;27.79;56.86;100265.40;1692040;83;21077;-60
2021/07/17 05:25:37;;;;;;;11.30;8.98;;;;;;;27.88;55.96;100259.62;1662401;84;21082;-59
2021/07/17 05:28:04;;;;;;;10.18;8.93;;;;;;;27.94;55.84;100260.86;1688142;83;21058;-60
2021/07/17 05:30:31;;;;;;;10.13;8.30;;;;;;;28.00;55.60;100256.91;1693296;83;21023;-63
2021/07/17 05:32:58;;;;;;;12.33;9.00;;;;;;;28.05;55.41;100265.11;1700645;83;21058;-62
2021/07/17 05:35:28;;;;;;;10.70;8.13;;;;;;;28.10;55.35;100267.37;1689491;83;21121;-60
2021/07/17 05:37:52;;;;;;;12.30;8.63;;;;;;;28.17;54.78;100268.03;1687661;83;21531;-61
2021/07/17 05:40:18;;;;;;;11.05;9.35;;;;;;;28.25;55.04;100265.48;1691177;83;21077;-61
2021/07/17 05:42:45;;;;;;;10.20;9.10;;;;;;;28.30;54.56;100266.92;1687948;83;21124;-64
2021/07/17 05:45:12;;;;;;;10.65;8.43;;;;;;;28.34;54.37;100269.95;1691587;84;21042;-64
2021/07/17 05:49:29;;;;;;;9.85;8.28;;;;;;;28.47;55.42;100266.12;1784891;78;22732;-59
2021/07/17 05:51:55;;;;;;;10.88;8.83;;;;;;;28.47;55.91;100276.41;1756733;79;21054;-61
2021/07/17 05:54:21;;;;;;;11.25;8.30;;;;;;;28.53;56.13;100277.34;1706423;82;21207;-61
2021/07/17 05:56:48;;;;;;;11.25;8.93;;;;;;;28.60;55.95;100278.03;1702715;81;21034;-63
2021/07/17 05:59:14;;;;;;;11.88;8.28;;;;;;;28.70;55.76;100275.48;1685460;83;21097;-61
2021/07/17 06:01:41;;;;;;;10.82;7.83;;;;;;;28.79;55.33;100272.38;1706148;83;21648;-61
2021/07/17 06:04:08;;;;;;;9.55;8.20;;;;;;;28.85;55.04;100270.85;1697991;81;21421;-61
2021/07/17 06:06:34;;;;;;;13.93;9.85;;;;;;;28.93;55.45;100276.91;1714457;81;22054;-61
2021/07/17 06:09:01;;;;;;;11.65;9.33;;;;;;;29.01;54.67;100275.95;1706843;83;21054;-61
2021/07/17 06:11:27;;;;;;;12.35;8.53;;;;;;;29.04;55.56;100276.81;1703334;83;21143;-67
2021/07/17 06:13:55;;;;;;;12.50;9.03;;;;;;;29.08;55.19;100276.62;1707549;82;20920;-61
2021/07/17 06:16:21;;;;;;;10.55;9.25;;;;;;;29.14;54.96;100279.41;1711247;81;21649;-62
2021/07/17 06:18:48;;;;;;;9.90;7.72;;;;;;;29.16;54.84;100265.07;1693119;83;21191;-62
2021/07/17 06:21:15;;;;;;;11.45;8.98;;;;;;;29.18;54.75;100262.95;1700151;82;21078;-62
2021/07/17 06:23:41;;;;;;;12.18;8.55;;;;;;;29.20;54.54;100267.59;1711296;81;21600;-61
2021/07/17 06:26:08;;;;;;;12.45;8.45;;;;;;;29.24;53.84;100270.09;1710041;83;21125;-60
2021/07/17 06:28:34;;;;;;;11.68;9.68;;;;;;;29.29;54.76;100268.81;1709312;83;21493;-62
2021/07/17 06:31:01;;;;;;;11.22;8.45;;;;;;;29.32;54.03;100268.32;1690670;83;21062;-61
2021/07/17 06:33:27;;;;;;;13.75;8.95;;;;;;;29.33;54.00;100260.45;1710765;81;21655;-61
2021/07/17 06:35:55;;;;;;;11.03;8.55;;;;;;;29.33;53.49;100266.42;1711669;81;21047;-63
2021/07/17 06:38:24;;;;;;;14.38;9.90;;;;;;;29.34;53.15;100266.17;1703139;82;21086;-64
2021/07/17 06:40:50;;;;;;;17.90;9.28;;;;;;;29.34;52.68;100270.23;1683932;83;21137;-63
2021/07/17 06:43:17;;;;;;;12.18;8.75;;;;;;;29.35;53.39;100271.86;1702092;83;21123;-62
2021/07/17 06:45:43;;;;;;;14.23;8.65;;;;;;;29.37;52.67;100269.73;1702442;83;21597;-65
2021/07/17 06:48:11;;;;;;;13.08;9.10;;;;;;;29.41;52.72;100268.16;1708719;83;21055;-63
2021/07/17 06:50:38;;;;;;;12.33;7.10;;;;;;;29.45;52.99;100263.05;1697682;83;21070;-64
2021/07/17 06:53:04;;;;;;;9.50;6.78;;;;;;;29.49;51.38;100257.94;1689641;82;21083;-63
2021/07/17 06:55:33;;;;;;;12.80;9.63;;;;;;;29.51;50.75;100256.63;1688874;83;21145;-64
2021/07/17 06:58:00;;;;;;;13.45;9.18;;;;;;;29.54;48.68;100254.78;1747216;79;21078;-70
2021/07/17 07:00:27;;;;;;;10.63;8.15;;;;;;;29.58;49.28;100249.66;1752063;81;21114;-68
2021/07/17 07:02:53;;;;;;;13.98;7.97;;;;;;;29.62;50.16;100250.27;1744994;81;21633;-71
2021/07/17 07:05:20;;;;;;;14.53;8.60;;;;;;;29.70;50.31;100252.25;1749476;81;21067;-67
2021/07/17 07:07:46;;;;;;;15.53;9.88;;;;;;;29.78;49.99;100251.28;1743815;81;21117;-66
2021/07/17 07:10:13;;;;;;;11.90;8.48;;;;;;;29.85;49.69;100250.28;1732216;81;21580;-64
2021/07/17 07:12:39;;;;;;;14.23;8.93;;;;;;;29.89;50.10;100251.40;1752401;81;21106;-65
2021/07/17 07:15:07;;;;;;;10.48;9.13;;;;;;;29.96;50.06;100251.50;1755222;79;21485;-64
2021/07/17 07:17:35;;;;;;;14.95;10.38;;;;;;;30.05;50.04;100251.04;1748181;81;21047;-71
2021/07/17 07:20:03;;;;;;;20.43;9.88;;;;;;;30.10;49.71;100251.90;1742200;81;21507;-66
2021/07/17 07:22:29;;;;;;;10.05;8.93;;;;;;;30.14;49.56;100248.13;1747949;79;21079;-66
2021/07/17 07:24:57;;;;;;;10.88;8.15;;;;;;;30.20;49.39;100243.86;1740584;80;21032;-68
2021/07/17 07:27:24;;;;;;;17.95;9.73;;;;;;;30.25;49.09;100245.81;1751063;81;21058;-66
2021/07/17 07:29:51;;;;;;;12.25;10.38;;;;;;;30.33;49.26;100249.97;1752783;79;21313;-68
2021/07/17 07:32:17;;;;;;;13.50;9.05;;;;;;;30.37;48.57;100248.39;1747654;81;21668;-66
2021/07/17 07:34:43;;;;;;;18.87;9.55;;;;;;;30.42;47.85;100250.34;1755210;79;21122;-68
2021/07/17 07:37:10;;;;;;;12.33;9.23;;;;;;;30.48;47.94;100250.64;1752575;81;21062;-70
2021/07/17 07:39:37;;;;;;;15.75;9.45;;;;;;;30.54;46.97;100248.26;1742794;79;21594;-68
2021/07/17 07:42:03;;;;;;;18.07;9.50;;;;;;;30.58;46.95;100249.39;1752118;81;21120;-73
2021/07/17 07:44:31;;;;;;;12.68;9.15;;;;;;;30.63;46.50;100252.66;1752484;81;21132;-67
2021/07/17 07:46:58;;;;;;;10.93;9.50;;;;;;;30.68;46.36;100239.97;1746648;81;21553;-70
2021/07/17 07:49:24;;;;;;;13.03;9.20;;;;;;;30.76;45.95;100244.08;1751630;80;21081;-69
2021/07/17 07:51:50;;;;;;;14.25;9.85;;;;;;;30.82;46.33;100242.23;1742466;81;21071;-67
2021/07/17 07:54:17;;;;;;;13.83;8.83;;;;;;;30.90;45.93;100243.92;1747021;81;21099;-70
2021/07/17 07:56:43;;;;;;;10.80;8.75;;;;;;;30.98;45.59;100238.55;1743445;81;21132;-66
2021/07/17 07:59:10;;;;;;;11.80;8.45;;;;;;;31.06;45.25;100239.97;1738191;81;21080;-66
2021/07/17 08:01:38;;;;;;;10.65;7.95;;;;;;;31.11;43.88;100235.92;1719220;81;21097;-70
2021/07/17 08:04:04;;;;;;;13.72;9.15;;;;;;;31.19;43.12;100240.05;1728482;81;21019;-67
2021/07/17 08:06:31;;;;;;;10.58;8.60;;;;;;;31.27;43.11;100240.36;1724022;81;21008;-67
2021/07/17 08:08:58;;;;;;;10.82;8.48;;;;;;;31.33;42.54;100233.58;1752781;81;21050;-66
2021/07/17 08:11:24;;;;;;;12.80;8.18;;;;;;;31.35;42.65;100236.30;1746784;81;21054;-69
2021/07/17 08:13:51;;;;;;;9.55;8.33;;;;;;;31.40;42.34;100234.16;1746874;81;21085;-70
2021/07/17 08:16:18;;;;;;;10.30;8.38;;;;;;;31.43;42.63;100233.63;1746956;80;21513;-70
2021/07/17 08:18:44;;;;;;;9.53;6.70;;;;;;;31.53;42.46;100233.70;1742964;80;21133;-69
2021/07/17 08:21:11;;;;;;;10.93;8.40;;;;;;;31.63;42.57;100224.21;1739635;81;21528;-67
2021/07/17 08:23:39;;;;;;;10.72;8.28;;;;;;;31.71;42.05;100231.56;1741330;81;21110;-68
2021/07/17 08:26:06;;;;;;;11.93;8.88;;;;;;;31.72;41.28;100218.25;1746519;81;21517;-70
2021/07/17 08:28:32;;;;;;;13.48;8.88;;;;;;;31.73;41.20;100223.42;1748056;81;21097;-67
2021/07/17 08:30:59;;;;;;;11.10;8.48;;;;;;;31.77;42.17;100220.98;1750300;81;21070;-71
2021/07/17 08:33:25;;;;;;;13.60;8.75;;;;;;;31.82;41.40;100221.00;1733111;81;21066;-67
2021/07/17 08:35:51;;;;;;;13.88;9.45;;;;;;;31.87;41.61;100218.28;1739735;81;21125;-68
2021/07/17 08:38:18;;;;;;;12.50;8.40;;;;;;;31.94;41.46;100219.39;1743902;80;21521;-70
2021/07/17 08:40:54;;;;;;;12.75;8.60;;;;;;;31.97;41.25;100218.30;1748382;81;21090;-66
2021/07/17 08:43:22;;;;;;;8.70;7.72;;;;;;;32.00;41.33;100215.59;1748797;80;21381;-68
2021/07/17 08:45:49;;;;;;;8.15;6.10;;;;;;;32.01;41.13;100213.97;1741516;80;21959;-68
2021/07/17 08:48:18;;;;;;;9.10;7.42;;;;;;;32.07;41.90;100207.20;1747265;81;21046;-65
2021/07/17 08:50:44;;;;;;;10.70;7.17;;;;;;;32.16;41.26;100213.73;1748438;81;21082;-67
2021/07/17 08:53:11;;;;;;;11.15;8.53;;;;;;;32.26;41.44;100214.28;1751544;79;21075;-64
2021/07/17 08:55:37;;;;;;;13.30;8.15;;;;;;;32.31;41.01;100211.04;1748078;81;21114;-67
2021/07/17 08:58:04;;;;;;;10.82;8.50;;;;;;;32.32;40.64;100211.84;1746662;81;21179;-67
2021/07/17 09:00:40;;;;;;;11.73;8.65;;;;;;;32.30;40.17;100211.31;1751382;81;21035;-66
2021/07/17 09:03:10;;;;;;;10.80;8.43;;;;;;;32.26;40.56;100212.38;1750329;79;21568;-67
2021/07/17 09:05:42;;;;;;;10.98;8.25;;;;;;;32.28;40.07;100210.22;1728952;82;21091;-66
2021/07/17 09:08:06;;;;;;;10.72;8.63;;;;;;;32.32;40.31;100214.02;1744737;81;20997;-68
2021/07/17 09:10:51;;;;;;;9.18;7.50;;;;;;;32.35;40.65;100210.75;1726171;81;21247;-67
2021/07/17 09:13:33;;;;;;;11.60;6.65;;;;;;;32.38;40.80;100204.77;1738044;81;21051;-66
2021/07/17 09:16:10;;;;;;;9.00;7.35;;;;;;;32.38;40.80;100204.77;1739618;79;21087;-65
2021/07/17 09:18:46;;;;;;;9.95;7.33;;;;;;;32.42;40.65;100202.31;1738061;81;21079;-66
2021/07/17 09:21:32;;;;;;;11.97;9.30;;;;;;;32.44;40.23;100202.85;1740987;81;21092;-65
2021/07/17 09:24:09;;;;;;;11.50;8.40;;;;;;;32.52;40.08;100201.50;1750096;81;21504;-66
2021/07/17 09:26:38;;;;;;;11.48;7.97;;;;;;;32.59;38.88;100199.30;1748054;81;21047;-66
2021/07/17 09:29:08;;;;;;;11.22;8.03;;;;;;;32.62;39.16;100204.23;1756721;81;20932;-66
2021/07/17 09:31:38;;;;;;;11.60;7.75;;;;;;;32.66;39.36;100201.22;1750743;81;21163;-66
2021/07/17 09:34:11;;;;;;;10.53;7.30;;;;;;;32.67;39.12;100197.42;1760599;81;21038;-67
2021/07/17 09:37:12;;;;;;;10.93;7.50;;;;;;;32.74;38.58;100191.69;1743354;81;21904;-65
2021/07/17 09:39:41;;;;;;;9.33;7.70;;;;;;;32.80;38.60;100192.48;1741899;79;21274;-66
2021/07/17 09:42:10;;;;;;;9.90;8.15;;;;;;;32.85;38.47;100188.38;1753443;81;21152;-67
2021/07/17 09:44:36;;;;;;;17.87;8.60;;;;;;;32.83;39.07;100183.20;1732864;81;21090;-67
2021/07/17 09:47:21;;;;;;;9.90;8.13;;;;;;;32.88;39.22;100188.64;1753380;81;21102;-68
2021/07/17 09:49:48;;;;;;;9.50;8.28;;;;;;;32.95;39.09;100183.73;1746012;79;21136;-65
2021/07/17 09:52:19;;;;;;;8.20;6.95;;;;;;;33.04;39.08;100185.89;1727726;81;21091;-68
2021/07/17 09:55:05;;;;;;;8.03;7.15;;;;;;;33.08;39.14;100178.22;1743004;80;21063;-67
2021/07/17 09:57:33;;;;;;;9.48;7.33;;;;;;;33.13;38.52;100178.76;1677996;84;21118;-65
2021/07/17 10:00:13;;;;;;;8.75;6.92;;;;;;;33.20;38.38;100174.41;1750820;80;21042;-67
2021/07/17 10:02:40;;;;;;;9.50;8.08;;;;;;;33.20;37.88;100171.12;1749004;80;21561;-67
2021/07/17 10:05:10;;;;;;;9.55;7.72;;;;;;;33.24;37.12;100167.31;1757208;80;21133;-67
2021/07/17 10:07:37;;;;;;;10.08;7.83;;;;;;;33.24;37.33;100169.48;1744233;81;21075;-64
2021/07/17 10:10:05;;;;;;;8.60;7.45;;;;;;;33.30;37.71;100168.38;1753388;81;21074;-65
2021/07/17 10:12:36;;;;;;;11.15;8.50;;;;;;;33.36;37.20;100168.34;1732950;80;21369;-67
2021/07/17 10:15:06;;;;;;;8.70;7.42;;;;;;;33.37;37.12;100172.13;1745472;80;21086;-67
2021/07/17 10:17:41;;;;;;;10.10;7.80;;;;;;;33.42;37.71;100167.20;1725748;81;20995;-71
2021/07/17 10:20:14;;;;;;;8.55;6.75;;;;;;;33.41;37.38;100166.41;1680751;83;21130;-73
2021/07/17 10:22:40;;;;;;;10.60;8.38;;;;;;;33.37;37.59;100159.86;1743650;81;21090;-75
2021/07/17 10:25:09;;;;;;;8.13;6.87;;;;;;;33.39;37.46;100156.86;1736747;81;21082;-70
2021/07/17 10:27:36;;;;;;;8.40;7.00;;;;;;;33.40;38.12;100156.58;1752522;81;21229;-75
2021/07/17 10:30:05;;;;;;;9.50;8.03;;;;;;;33.46;38.49;100156.02;1747689;81;21043;-74
2021/07/17 10:32:31;;;;;;;8.98;7.58;;;;;;;33.53;37.73;100157.88;1750153;81;21003;-72
2021/07/17 10:34:58;;;;;;;8.60;7.45;;;;;;;33.59;38.62;100150.47;1747876;81;21672;-68
2021/07/17 10:37:30;;;;;;;10.28;7.80;;;;;;;33.66;38.61;100147.70;1730729;80;21119;-66
2021/07/17 10:40:13;;;;;;;10.45;7.20;;;;;;;33.73;38.35;100145.25;1746118;81;21178;-57
2021/07/17 10:42:46;;;;;;;8.88;7.20;;;;;;;33.72;38.62;100142.25;1747866;81;21050;-66
2021/07/17 10:45:37;;;;;;;9.43;6.67;;;;;;;33.69;38.37;100143.61;1743647;80;21087;-66
2021/07/17 10:48:23;;;;;;;9.15;7.15;;;;;;;33.69;38.15;100138.16;1721228;81;21597;-66
2021/07/17 10:50:50;;;;;;;9.33;7.90;;;;;;;33.65;38.39;100131.62;1730478;80;21105;-62
2021/07/17 10:53:48;;;;;;;9.33;6.72;;;;;;;33.61;38.08;100130.57;1719391;82;21106;-65
2021/07/17 10:56:45;;;;;;;7.45;6.33;;;;;;;33.55;38.01;100128.41;1722722;81;21075;-64
2021/07/17 10:59:17;;;;;;;9.50;7.08;;;;;;;33.51;38.77;100122.70;1733659;81;21133;-64
2021/07/17 11:02:02;;;;;;;12.13;7.58;;;;;;;33.53;39.54;100121.06;1722646;81;21152;-63
2021/07/17 11:04:51;;;;;;;10.03;7.97;;;;;;;33.59;38.67;100114.48;1721869;81;21138;-63
2021/07/17 11:07:26;;;;;;;13.70;8.35;;;;;;;33.72;37.40;100108.14;1724703;81;21597;-64
2021/07/17 11:10:07;;;;;;;11.50;7.58;;;;;;;33.81;37.67;100097.70;1719423;82;21082;-65
2021/07/17 11:12:46;;;;;;;9.83;7.15;;;;;;;33.93;35.93;100099.23;1720131;81;21070;-63
2021/07/17 11:15:18;;;;;;;11.50;7.58;;;;;;;34.03;36.75;100099.17;1688848;82;21570;-64
2021/07/17 11:17:52;;;;;;;11.40;8.20;;;;;;;34.18;36.23;100096.82;1730164;82;21110;-64
2021/07/17 11:20:34;;;;;;;9.15;6.40;;;;;;;34.34;36.10;100087.97;1719691;81;21082;-64
2021/07/17 11:23:13;;;;;;;9.98;7.58;;;;;;;34.46;36.14;100087.02;1716409;81;21116;-65
2021/07/17 11:25:59;;;;;;;8.33;7.22;;;;;;;34.54;36.08;100085.58;1733476;81;21122;-63